sensor_id;sensor_type;location;lat;lon;timestamp;P1;durP1;ratioP1;P2;durP2;ratioP2
75912;SDS011;64592;52.168;21.040;2022-12-29T00:02:28;11.57;;;5.10;;
75912;SDS011;64592;52.168;21.040;2022-12-29T00:07:31;8.07;;;4.47;;
75912;SDS011;64592;52.168;21.040;2022-12-29T00:12:33;9.70;;;5.00;;
75912;SDS011;64592;52.168;21.040;2022-12-29T00:17:48;8.40;;;5.00;;
75912;SDS011;64592;52.168;21.040;2022-12-29T00:22:51;11.15;;;5.57;;
75912;SDS011;64592;52.168;21.040;2022-12-29T00:28:10;9.32;;;4.82;;
75912;SDS011;64592;52.168;21.040;2022-12-29T00:33:30;9.88;;;5.20;;
75912;SDS011;64592;52.168;21.040;2022-12-29T00:38:53;9.40;;;5.18;;
75912;SDS011;64592;52.168;21.040;2022-12-29T00:44:26;9.02;;;3.50;;
75912;SDS011;64592;52.168;21.040;2022-12-29T00:49:28;8.60;;;5.40;;
75912;SDS011;64592;52.168;21.040;2022-12-29T00:54:35;9.95;;;4.68;;
75912;SDS011;64592;52.168;21.040;2022-12-29T00:59:38;8.88;;;4.20;;
75912;SDS011;64592;52.168;21.040;2022-12-29T01:04:40;8.63;;;5.05;;
75912;SDS011;64592;52.168;21.040;2022-12-29T01:09:44;9.70;;;4.35;;
75912;SDS011;64592;52.168;21.040;2022-12-29T01:15:03;8.43;;;4.45;;
75912;SDS011;64592;52.168;21.040;2022-12-29T01:20:06;6.47;;;4.13;;
75912;SDS011;64592;52.168;21.040;2022-12-29T01:25:09;7.95;;;4.20;;
75912;SDS011;64592;52.168;21.040;2022-12-29T01:30:11;7.45;;;4.55;;
75912;SDS011;64592;52.168;21.040;2022-12-29T01:35:13;8.10;;;4.40;;
75912;SDS011;64592;52.168;21.040;2022-12-29T01:40:17;6.35;;;3.60;;
75912;SDS011;64592;52.168;21.040;2022-12-29T01:45:18;7.85;;;3.67;;
75912;SDS011;64592;52.168;21.040;2022-12-29T01:50:22;6.60;;;3.92;;
75912;SDS011;64592;52.168;21.040;2022-12-29T01:55:29;9.55;;;4.38;;
75912;SDS011;64592;52.168;21.040;2022-12-29T02:00:35;8.65;;;4.13;;
75912;SDS011;64592;52.168;21.040;2022-12-29T02:05:39;9.63;;;4.47;;
75912;SDS011;64592;52.168;21.040;2022-12-29T02:10:47;6.43;;;3.65;;
75912;SDS011;64592;52.168;21.040;2022-12-29T02:15:52;7.63;;;4.32;;
75912;SDS011;64592;52.168;21.040;2022-12-29T02:21:13;6.03;;;4.20;;
75912;SDS011;64592;52.168;21.040;2022-12-29T02:26:44;6.68;;;3.80;;
75912;SDS011;64592;52.168;21.040;2022-12-29T02:32:00;8.13;;;3.28;;
75912;SDS011;64592;52.168;21.040;2022-12-29T02:37:05;7.43;;;3.63;;
75912;SDS011;64592;52.168;21.040;2022-12-29T02:42:13;5.43;;;4.40;;
75912;SDS011;64592;52.168;21.040;2022-12-29T02:47:23;6.28;;;3.65;;
75912;SDS011;64592;52.168;21.040;2022-12-29T02:52:31;7.68;;;3.97;;
75912;SDS011;64592;52.168;21.040;2022-12-29T02:57:37;7.00;;;3.20;;
75912;SDS011;64592;52.168;21.040;2022-12-29T03:02:46;5.55;;;3.55;;
75912;SDS011;64592;52.168;21.040;2022-12-29T03:08:00;6.65;;;3.47;;
75912;SDS011;64592;52.168;21.040;2022-12-29T03:13:10;3.83;;;2.38;;
75912;SDS011;64592;52.168;21.040;2022-12-29T03:18:39;5.70;;;3.65;;
75912;SDS011;64592;52.168;21.040;2022-12-29T03:23:47;5.38;;;3.53;;
75912;SDS011;64592;52.168;21.040;2022-12-29T03:28:51;5.55;;;4.32;;
75912;SDS011;64592;52.168;21.040;2022-12-29T03:33:56;9.25;;;4.13;;
75912;SDS011;64592;52.168;21.040;2022-12-29T03:39:01;7.28;;;3.35;;
75912;SDS011;64592;52.168;21.040;2022-12-29T03:49:10;6.65;;;3.63;;
75912;SDS011;64592;52.168;21.040;2022-12-29T03:54:11;6.32;;;3.42;;
75912;SDS011;64592;52.168;21.040;2022-12-29T03:59:13;8.30;;;4.00;;
75912;SDS011;64592;52.168;21.040;2022-12-29T04:04:16;6.90;;;4.25;;
75912;SDS011;64592;52.168;21.040;2022-12-29T04:09:18;8.68;;;4.32;;
75912;SDS011;64592;52.168;21.040;2022-12-29T04:14:20;7.85;;;4.60;;
75912;SDS011;64592;52.168;21.040;2022-12-29T04:19:23;8.95;;;4.53;;
75912;SDS011;64592;52.168;21.040;2022-12-29T04:24:24;9.48;;;4.45;;
75912;SDS011;64592;52.168;21.040;2022-12-29T04:29:26;11.43;;;4.72;;
75912;SDS011;64592;52.168;21.040;2022-12-29T04:34:29;8.40;;;4.35;;
75912;SDS011;64592;52.168;21.040;2022-12-29T04:39:31;10.85;;;5.60;;
75912;SDS011;64592;52.168;21.040;2022-12-29T04:44:34;8.40;;;3.97;;
75912;SDS011;64592;52.168;21.040;2022-12-29T04:49:37;10.95;;;5.20;;
75912;SDS011;64592;52.168;21.040;2022-12-29T04:54:38;13.48;;;5.03;;
75912;SDS011;64592;52.168;21.040;2022-12-29T04:59:40;9.48;;;5.43;;
75912;SDS011;64592;52.168;21.040;2022-12-29T05:04:43;9.73;;;5.32;;
75912;SDS011;64592;52.168;21.040;2022-12-29T05:09:45;9.95;;;5.40;;
75912;SDS011;64592;52.168;21.040;2022-12-29T05:14:47;9.95;;;5.15;;
75912;SDS011;64592;52.168;21.040;2022-12-29T05:19:50;12.88;;;6.07;;
75912;SDS011;64592;52.168;21.040;2022-12-29T05:24:52;10.38;;;4.80;;
75912;SDS011;64592;52.168;21.040;2022-12-29T05:29:54;7.80;;;5.22;;
75912;SDS011;64592;52.168;21.040;2022-12-29T05:34:57;8.48;;;5.15;;
75912;SDS011;64592;52.168;21.040;2022-12-29T05:39:58;9.63;;;4.55;;
75912;SDS011;64592;52.168;21.040;2022-12-29T05:45:00;10.57;;;5.82;;
75912;SDS011;64592;52.168;21.040;2022-12-29T05:50:03;13.05;;;5.25;;
75912;SDS011;64592;52.168;21.040;2022-12-29T05:55:06;10.77;;;5.72;;
75912;SDS011;64592;52.168;21.040;2022-12-29T06:00:09;11.27;;;5.00;;
75912;SDS011;64592;52.168;21.040;2022-12-29T06:05:12;10.88;;;4.63;;
75912;SDS011;64592;52.168;21.040;2022-12-29T06:10:14;9.30;;;5.45;;
75912;SDS011;64592;52.168;21.040;2022-12-29T06:15:16;9.35;;;5.13;;
75912;SDS011;64592;52.168;21.040;2022-12-29T06:20:19;11.52;;;5.40;;
75912;SDS011;64592;52.168;21.040;2022-12-29T06:25:21;10.70;;;4.97;;
75912;SDS011;64592;52.168;21.040;2022-12-29T06:30:23;8.07;;;4.53;;
75912;SDS011;64592;52.168;21.040;2022-12-29T06:35:26;10.70;;;4.95;;
75912;SDS011;64592;52.168;21.040;2022-12-29T06:40:28;9.30;;;4.75;;
75912;SDS011;64592;52.168;21.040;2022-12-29T06:45:30;11.40;;;5.22;;
75912;SDS011;64592;52.168;21.040;2022-12-29T06:50:33;8.43;;;5.00;;
75912;SDS011;64592;52.168;21.040;2022-12-29T06:55:34;8.05;;;3.60;;
75912;SDS011;64592;52.168;21.040;2022-12-29T07:00:36;9.57;;;4.75;;
75912;SDS011;64592;52.168;21.040;2022-12-29T07:05:39;10.38;;;5.50;;
75912;SDS011;64592;52.168;21.040;2022-12-29T07:10:41;10.80;;;4.80;;
75912;SDS011;64592;52.168;21.040;2022-12-29T07:15:43;10.23;;;4.90;;
75912;SDS011;64592;52.168;21.040;2022-12-29T07:20:46;8.55;;;4.80;;
75912;SDS011;64592;52.168;21.040;2022-12-29T07:25:47;5.18;;;4.07;;
75912;SDS011;64592;52.168;21.040;2022-12-29T07:30:49;5.63;;;3.28;;
75912;SDS011;64592;52.168;21.040;2022-12-29T07:35:52;6.97;;;3.83;;
75912;SDS011;64592;52.168;21.040;2022-12-29T07:40:56;9.90;;;4.70;;
75912;SDS011;64592;52.168;21.040;2022-12-29T07:45:58;9.38;;;4.55;;
75912;SDS011;64592;52.168;21.040;2022-12-29T07:51:01;8.30;;;4.55;;
75912;SDS011;64592;52.168;21.040;2022-12-29T07:56:03;8.50;;;4.18;;
75912;SDS011;64592;52.168;21.040;2022-12-29T08:01:06;8.00;;;4.80;;
75912;SDS011;64592;52.168;21.040;2022-12-29T08:06:10;7.20;;;4.38;;
75912;SDS011;64592;52.168;21.040;2022-12-29T08:11:12;9.75;;;4.18;;
75912;SDS011;64592;52.168;21.040;2022-12-29T08:16:13;8.55;;;3.90;;
75912;SDS011;64592;52.168;21.040;2022-12-29T08:21:16;11.48;;;4.40;;
75912;SDS011;64592;52.168;21.040;2022-12-29T08:26:18;8.02;;;4.20;;
75912;SDS011;64592;52.168;21.040;2022-12-29T08:31:20;7.60;;;3.97;;
75912;SDS011;64592;52.168;21.040;2022-12-29T08:36:23;6.30;;;4.28;;
75912;SDS011;64592;52.168;21.040;2022-12-29T08:41:24;6.63;;;4.10;;
75912;SDS011;64592;52.168;21.040;2022-12-29T08:46:26;5.88;;;3.38;;
75912;SDS011;64592;52.168;21.040;2022-12-29T08:51:29;5.68;;;4.07;;
75912;SDS011;64592;52.168;21.040;2022-12-29T08:56:31;7.53;;;4.43;;
75912;SDS011;64592;52.168;21.040;2022-12-29T09:01:33;8.45;;;3.20;;
75912;SDS011;64592;52.168;21.040;2022-12-29T09:06:37;9.60;;;4.03;;
75912;SDS011;64592;52.168;21.040;2022-12-29T09:11:39;9.10;;;4.78;;
75912;SDS011;64592;52.168;21.040;2022-12-29T09:16:41;9.85;;;4.18;;
75912;SDS011;64592;52.168;21.040;2022-12-29T09:22:02;11.60;;;4.80;;
75912;SDS011;64592;52.168;21.040;2022-12-29T09:27:04;6.80;;;3.58;;
75912;SDS011;64592;52.168;21.040;2022-12-29T09:32:05;7.65;;;4.55;;
75912;SDS011;64592;52.168;21.040;2022-12-29T09:37:08;8.50;;;4.63;;
75912;SDS011;64592;52.168;21.040;2022-12-29T09:42:13;7.15;;;4.20;;
75912;SDS011;64592;52.168;21.040;2022-12-29T09:47:21;8.38;;;4.07;;
75912;SDS011;64592;52.168;21.040;2022-12-29T09:52:26;4.88;;;3.63;;
75912;SDS011;64592;52.168;21.040;2022-12-29T09:57:34;7.70;;;3.97;;
75912;SDS011;64592;52.168;21.040;2022-12-29T10:02:39;11.80;;;4.55;;
75912;SDS011;64592;52.168;21.040;2022-12-29T10:07:48;8.63;;;3.97;;
75912;SDS011;64592;52.168;21.040;2022-12-29T10:13:00;7.28;;;4.40;;
75912;SDS011;64592;52.168;21.040;2022-12-29T10:18:13;6.82;;;3.78;;
75912;SDS011;64592;52.168;21.040;2022-12-29T10:23:31;8.43;;;4.35;;
75912;SDS011;64592;52.168;21.040;2022-12-29T10:28:37;7.40;;;4.20;;
75912;SDS011;64592;52.168;21.040;2022-12-29T10:33:43;8.13;;;4.53;;
75912;SDS011;64592;52.168;21.040;2022-12-29T10:38:51;8.23;;;4.97;;
75912;SDS011;64592;52.168;21.040;2022-12-29T10:44:03;8.27;;;4.50;;
75912;SDS011;64592;52.168;21.040;2022-12-29T10:49:05;7.38;;;4.65;;
75912;SDS011;64592;52.168;21.040;2022-12-29T10:54:17;4.85;;;2.55;;
75912;SDS011;64592;52.168;21.040;2022-12-29T10:59:24;7.88;;;4.47;;
75912;SDS011;64592;52.168;21.040;2022-12-29T11:09:54;7.13;;;4.28;;
75912;SDS011;64592;52.168;21.040;2022-12-29T11:15:00;8.27;;;4.72;;
75912;SDS011;64592;52.168;21.040;2022-12-29T11:20:19;7.70;;;3.80;;
75912;SDS011;64592;52.168;21.040;2022-12-29T11:25:31;8.15;;;5.18;;
75912;SDS011;64592;52.168;21.040;2022-12-29T11:30:33;9.98;;;5.05;;
75912;SDS011;64592;52.168;21.040;2022-12-29T11:35:36;7.03;;;4.65;;
75912;SDS011;64592;52.168;21.040;2022-12-29T11:40:42;6.63;;;3.40;;
75912;SDS011;64592;52.168;21.040;2022-12-29T11:45:44;8.02;;;4.32;;
75912;SDS011;64592;52.168;21.040;2022-12-29T11:50:50;7.65;;;4.07;;
75912;SDS011;64592;52.168;21.040;2022-12-29T11:55:56;7.35;;;3.97;;
75912;SDS011;64592;52.168;21.040;2022-12-29T12:01:00;7.40;;;4.53;;
75912;SDS011;64592;52.168;21.040;2022-12-29T12:06:07;8.32;;;4.85;;
75912;SDS011;64592;52.168;21.040;2022-12-29T12:11:18;6.45;;;4.30;;
75912;SDS011;64592;52.168;21.040;2022-12-29T12:16:24;9.68;;;5.20;;
75912;SDS011;64592;52.168;21.040;2022-12-29T12:21:31;8.27;;;4.43;;
75912;SDS011;64592;52.168;21.040;2022-12-29T12:26:42;6.40;;;3.97;;
75912;SDS011;64592;52.168;21.040;2022-12-29T12:31:54;7.10;;;4.03;;
75912;SDS011;64592;52.168;21.040;2022-12-29T12:37:02;9.43;;;4.38;;
75912;SDS011;64592;52.168;21.040;2022-12-29T12:42:24;9.65;;;4.93;;
75912;SDS011;64592;52.168;21.040;2022-12-29T12:47:45;11.55;;;5.07;;
75912;SDS011;64592;52.168;21.040;2022-12-29T12:53:12;10.15;;;5.88;;
75912;SDS011;64592;52.168;21.040;2022-12-29T12:58:27;13.35;;;5.03;;
75912;SDS011;64592;52.168;21.040;2022-12-29T13:03:45;8.32;;;4.15;;
75912;SDS011;64592;52.168;21.040;2022-12-29T13:09:01;7.47;;;4.57;;
75912;SDS011;64592;52.168;21.040;2022-12-29T13:14:18;9.05;;;4.75;;
75912;SDS011;64592;52.168;21.040;2022-12-29T13:19:30;8.90;;;4.53;;
75912;SDS011;64592;52.168;21.040;2022-12-29T13:24:42;7.32;;;4.70;;
75912;SDS011;64592;52.168;21.040;2022-12-29T13:35:05;7.95;;;3.45;;
75912;SDS011;64592;52.168;21.040;2022-12-29T13:40:18;8.95;;;4.28;;
75912;SDS011;64592;52.168;21.040;2022-12-29T13:45:26;8.63;;;4.35;;
75912;SDS011;64592;52.168;21.040;2022-12-29T13:50:33;7.15;;;4.53;;
75912;SDS011;64592;52.168;21.040;2022-12-29T13:55:39;7.80;;;5.10;;
75912;SDS011;64592;52.168;21.040;2022-12-29T14:00:50;8.77;;;3.78;;
75912;SDS011;64592;52.168;21.040;2022-12-29T14:06:05;8.38;;;4.43;;
75912;SDS011;64592;52.168;21.040;2022-12-29T14:11:15;10.45;;;4.05;;
75912;SDS011;64592;52.168;21.040;2022-12-29T14:16:27;9.85;;;4.60;;
75912;SDS011;64592;52.168;21.040;2022-12-29T14:21:32;6.95;;;4.55;;
75912;SDS011;64592;52.168;21.040;2022-12-29T14:26:35;8.23;;;5.10;;
75912;SDS011;64592;52.168;21.040;2022-12-29T14:31:38;14.05;;;5.82;;
75912;SDS011;64592;52.168;21.040;2022-12-29T14:36:42;9.40;;;5.07;;
75912;SDS011;64592;52.168;21.040;2022-12-29T14:41:58;8.00;;;5.30;;
75912;SDS011;64592;52.168;21.040;2022-12-29T14:47:04;10.48;;;5.07;;
75912;SDS011;64592;52.168;21.040;2022-12-29T14:52:13;10.05;;;4.78;;
75912;SDS011;64592;52.168;21.040;2022-12-29T14:57:24;11.75;;;5.63;;
75912;SDS011;64592;52.168;21.040;2022-12-29T15:02:33;12.50;;;5.07;;
75912;SDS011;64592;52.168;21.040;2022-12-29T15:07:39;8.88;;;6.18;;
75912;SDS011;64592;52.168;21.040;2022-12-29T15:12:43;8.70;;;6.05;;
75912;SDS011;64592;52.168;21.040;2022-12-29T15:17:50;12.30;;;6.05;;
75912;SDS011;64592;52.168;21.040;2022-12-29T15:22:54;12.15;;;5.50;;
75912;SDS011;64592;52.168;21.040;2022-12-29T15:27:59;12.65;;;5.55;;
75912;SDS011;64592;52.168;21.040;2022-12-29T15:33:10;10.77;;;5.82;;
75912;SDS011;64592;52.168;21.040;2022-12-29T15:38:21;8.63;;;4.82;;
75912;SDS011;64592;52.168;21.040;2022-12-29T15:43:27;9.27;;;5.28;;
75912;SDS011;64592;52.168;21.040;2022-12-29T15:48:37;10.43;;;5.78;;
75912;SDS011;64592;52.168;21.040;2022-12-29T15:53:39;16.83;;;6.10;;
75912;SDS011;64592;52.168;21.040;2022-12-29T15:58:42;8.57;;;4.65;;
75912;SDS011;64592;52.168;21.040;2022-12-29T16:03:47;13.13;;;5.75;;
75912;SDS011;64592;52.168;21.040;2022-12-29T16:08:55;10.23;;;6.13;;
75912;SDS011;64592;52.168;21.040;2022-12-29T16:13:57;16.40;;;7.03;;
75912;SDS011;64592;52.168;21.040;2022-12-29T16:19:01;12.73;;;6.07;;
75912;SDS011;64592;52.168;21.040;2022-12-29T16:24:12;7.93;;;4.82;;
75912;SDS011;64592;52.168;21.040;2022-12-29T16:29:17;10.00;;;5.28;;
75912;SDS011;64592;52.168;21.040;2022-12-29T16:34:24;9.18;;;5.45;;
75912;SDS011;64592;52.168;21.040;2022-12-29T16:39:30;10.18;;;4.97;;
75912;SDS011;64592;52.168;21.040;2022-12-29T16:44:34;10.35;;;5.30;;
75912;SDS011;64592;52.168;21.040;2022-12-29T16:49:38;10.05;;;5.28;;
75912;SDS011;64592;52.168;21.040;2022-12-29T16:54:41;12.05;;;5.90;;
75912;SDS011;64592;52.168;21.040;2022-12-29T16:59:43;6.63;;;4.10;;
75912;SDS011;64592;52.168;21.040;2022-12-29T17:04:46;8.65;;;4.78;;
75912;SDS011;64592;52.168;21.040;2022-12-29T17:09:49;7.18;;;4.40;;
75912;SDS011;64592;52.168;21.040;2022-12-29T17:14:53;5.82;;;4.88;;
75912;SDS011;64592;52.168;21.040;2022-12-29T17:20:00;8.68;;;4.30;;
75912;SDS011;64592;52.168;21.040;2022-12-29T17:25:04;9.18;;;6.10;;
75912;SDS011;64592;52.168;21.040;2022-12-29T17:30:09;9.10;;;4.18;;
75912;SDS011;64592;52.168;21.040;2022-12-29T17:35:14;11.52;;;5.13;;
75912;SDS011;64592;52.168;21.040;2022-12-29T17:40:17;14.18;;;7.55;;
75912;SDS011;64592;52.168;21.040;2022-12-29T17:45:21;8.75;;;5.05;;
75912;SDS011;64592;52.168;21.040;2022-12-29T17:50:26;8.68;;;4.90;;
75912;SDS011;64592;52.168;21.040;2022-12-29T17:55:30;9.48;;;4.85;;
75912;SDS011;64592;52.168;21.040;2022-12-29T18:00:32;9.63;;;5.50;;
75912;SDS011;64592;52.168;21.040;2022-12-29T18:05:35;9.35;;;5.68;;
75912;SDS011;64592;52.168;21.040;2022-12-29T18:10:37;11.35;;;5.90;;
75912;SDS011;64592;52.168;21.040;2022-12-29T18:15:39;13.25;;;5.45;;
75912;SDS011;64592;52.168;21.040;2022-12-29T18:20:42;9.07;;;4.90;;
75912;SDS011;64592;52.168;21.040;2022-12-29T18:25:46;12.85;;;6.35;;
75912;SDS011;64592;52.168;21.040;2022-12-29T18:35:57;11.70;;;6.15;;
75912;SDS011;64592;52.168;21.040;2022-12-29T18:41:00;7.95;;;5.28;;
75912;SDS011;64592;52.168;21.040;2022-12-29T18:46:02;13.00;;;6.30;;
75912;SDS011;64592;52.168;21.040;2022-12-29T18:51:05;11.90;;;6.93;;
75912;SDS011;64592;52.168;21.040;2022-12-29T18:56:07;12.77;;;7.40;;
75912;SDS011;64592;52.168;21.040;2022-12-29T19:01:10;14.35;;;6.50;;
75912;SDS011;64592;52.168;21.040;2022-12-29T19:06:21;11.68;;;5.90;;
75912;SDS011;64592;52.168;21.040;2022-12-29T19:11:23;10.98;;;6.35;;
75912;SDS011;64592;52.168;21.040;2022-12-29T19:16:25;13.38;;;8.70;;
75912;SDS011;64592;52.168;21.040;2022-12-29T19:21:28;13.30;;;7.13;;
75912;SDS011;64592;52.168;21.040;2022-12-29T19:26:31;9.32;;;6.70;;
75912;SDS011;64592;52.168;21.040;2022-12-29T19:31:36;16.55;;;7.45;;
75912;SDS011;64592;52.168;21.040;2022-12-29T19:36:39;14.73;;;8.82;;
75912;SDS011;64592;52.168;21.040;2022-12-29T19:41:41;14.77;;;7.18;;
75912;SDS011;64592;52.168;21.040;2022-12-29T19:46:43;15.75;;;7.25;;
75912;SDS011;64592;52.168;21.040;2022-12-29T19:51:46;10.50;;;6.35;;
75912;SDS011;64592;52.168;21.040;2022-12-29T19:56:47;14.18;;;6.88;;
75912;SDS011;64592;52.168;21.040;2022-12-29T20:01:49;12.45;;;6.85;;
75912;SDS011;64592;52.168;21.040;2022-12-29T20:06:52;15.00;;;7.05;;
75912;SDS011;64592;52.168;21.040;2022-12-29T20:11:54;15.98;;;8.63;;
75912;SDS011;64592;52.168;21.040;2022-12-29T20:16:56;15.43;;;7.80;;
75912;SDS011;64592;52.168;21.040;2022-12-29T20:21:59;10.52;;;6.47;;
75912;SDS011;64592;52.168;21.040;2022-12-29T20:27:01;13.65;;;7.93;;
75912;SDS011;64592;52.168;21.040;2022-12-29T20:32:04;13.57;;;7.47;;
75912;SDS011;64592;52.168;21.040;2022-12-29T20:37:07;10.90;;;6.35;;
75912;SDS011;64592;52.168;21.040;2022-12-29T20:42:10;14.27;;;7.63;;
75912;SDS011;64592;52.168;21.040;2022-12-29T20:47:11;13.35;;;7.65;;
75912;SDS011;64592;52.168;21.040;2022-12-29T20:52:15;12.18;;;6.30;;
75912;SDS011;64592;52.168;21.040;2022-12-29T20:57:16;12.18;;;6.68;;
75912;SDS011;64592;52.168;21.040;2022-12-29T21:02:19;11.30;;;5.70;;
75912;SDS011;64592;52.168;21.040;2022-12-29T21:07:23;14.40;;;7.63;;
75912;SDS011;64592;52.168;21.040;2022-12-29T21:12:25;14.63;;;7.78;;
75912;SDS011;64592;52.168;21.040;2022-12-29T21:17:26;13.23;;;6.82;;
75912;SDS011;64592;52.168;21.040;2022-12-29T21:22:29;13.63;;;6.93;;
75912;SDS011;64592;52.168;21.040;2022-12-29T21:27:31;12.02;;;7.10;;
75912;SDS011;64592;52.168;21.040;2022-12-29T21:32:33;13.60;;;6.78;;
75912;SDS011;64592;52.168;21.040;2022-12-29T21:37:36;16.45;;;8.57;;
75912;SDS011;64592;52.168;21.040;2022-12-29T21:42:39;19.27;;;7.03;;
75912;SDS011;64592;52.168;21.040;2022-12-29T21:47:40;12.07;;;6.47;;
75912;SDS011;64592;52.168;21.040;2022-12-29T21:53:01;13.15;;;6.85;;
75912;SDS011;64592;52.168;21.040;2022-12-29T21:58:02;12.00;;;7.00;;
75912;SDS011;64592;52.168;21.040;2022-12-29T22:03:22;11.45;;;6.70;;
75912;SDS011;64592;52.168;21.040;2022-12-29T22:08:42;14.75;;;7.28;;
75912;SDS011;64592;52.168;21.040;2022-12-29T22:14:01;13.63;;;7.03;;
75912;SDS011;64592;52.168;21.040;2022-12-29T22:19:05;12.82;;;6.88;;
75912;SDS011;64592;52.168;21.040;2022-12-29T22:24:09;10.63;;;6.07;;
75912;SDS011;64592;52.168;21.040;2022-12-29T22:29:10;11.40;;;6.60;;
75912;SDS011;64592;52.168;21.040;2022-12-29T22:34:12;13.70;;;7.35;;
75912;SDS011;64592;52.168;21.040;2022-12-29T22:39:15;10.68;;;5.85;;
75912;SDS011;64592;52.168;21.040;2022-12-29T22:44:17;10.80;;;6.30;;
75912;SDS011;64592;52.168;21.040;2022-12-29T22:49:19;11.73;;;6.55;;
75912;SDS011;64592;52.168;21.040;2022-12-29T22:54:22;11.60;;;6.03;;
75912;SDS011;64592;52.168;21.040;2022-12-29T22:59:24;8.93;;;6.57;;
75912;SDS011;64592;52.168;21.040;2022-12-29T23:04:25;14.80;;;7.25;;
75912;SDS011;64592;52.168;21.040;2022-12-29T23:09:29;13.50;;;6.88;;
75912;SDS011;64592;52.168;21.040;2022-12-29T23:14:30;14.43;;;8.38;;
75912;SDS011;64592;52.168;21.040;2022-12-29T23:19:32;13.88;;;7.38;;
75912;SDS011;64592;52.168;21.040;2022-12-29T23:24:35;10.93;;;7.22;;
75912;SDS011;64592;52.168;21.040;2022-12-29T23:29:37;12.00;;;6.50;;
75912;SDS011;64592;52.168;21.040;2022-12-29T23:34:39;10.35;;;6.35;;
75912;SDS011;64592;52.168;21.040;2022-12-29T23:39:42;12.30;;;6.57;;
75912;SDS011;64592;52.168;21.040;2022-12-29T23:44:43;18.17;;;7.32;;
75912;SDS011;64592;52.168;21.040;2022-12-29T23:49:45;12.38;;;7.07;;
75912;SDS011;64592;52.168;21.040;2022-12-29T23:54:48;13.20;;;7.82;;
75912;SDS011;64592;52.168;21.040;2022-12-29T23:59:50;14.60;;;7.70;;
